Sculptor — PP9309 — position and weather

sailwx.info

Track history (hours):
 
Tides and Currents Weather Stations Pressure Air Temp Water Temp Dewpoint Dewpoint Depression Visibility Wind Speed Wind Dir Waves Ship Positions

Sculptor

Last reported at 2017-Dec-17 08:00 UTC. Time now 2017-Dec-17 08:22 UTC.
Position S 23°59' W 046°18'.

Length 32 m; draft 5.5 m.

Type: Tug. MMSI: 710005970.

Date/timePositionNaut miles runAvg speedWind from/ knotsBaromVisibWave heightAir tempDewpointWater temp
2017-Dec-17 08:00S 23°59' W 046°18'0 0.0
2017-Dec-17 07:27S 23°59' W 046°18'0 0.0
2017-Dec-17 06:58S 23°59' W 046°18'0 0.0
2017-Dec-17 06:30S 23°59' W 046°18'0 0.0
2017-Dec-17 06:00S 23°59' W 046°18'5 5.4
2017-Dec-17 05:01S 23°55' W 046°21'3 2.9
2017-Dec-17 04:00S 23°57' W 046°19'1 1.4
2017-Dec-17 03:06S 23°58' W 046°18'0 0.0
2017-Dec-17 02:59S 23°58' W 046°18'0 0.0
2017-Dec-17 02:20S 23°58' W 046°18'0 0.0
2017-Dec-17 01:59S 23°58' W 046°18'0 0.4
2017-Dec-17 01:04S 23°58' W 046°18'0 0.9
2017-Dec-17 01:00S 23°58' W 046°18'0 0.1
2017-Dec-16 22:07S 23°58' W 046°18'1 6.5
2017-Dec-16 21:55S 23°59' W 046°17'0 0.5
2017-Dec-16 21:18S 23°59' W 046°18'0 0.0
2017-Dec-16 20:49S 23°59' W 046°18'0 0.0
2017-Dec-16 19:47S 23°59' W 046°18'0 0.0
2017-Dec-16 19:29S 23°59' W 046°18'0 0.0
2017-Dec-16 18:56S 23°59' W 046°18'0 0.0
2017-Dec-16 18:29S 23°59' W 046°18'0 0.0
2017-Dec-16 17:58S 23°59' W 046°18'2 0.1
2017-Dec-16 01:31S 23°57' W 046°18'1 9.1
2017-Dec-16 01:24S 23°58' W 046°18'1 3.3
2017-Dec-16 01:00S 23°59' W 046°18'0 0.1
2017-Dec-16 00:28S 23°59' W 046°18'0 0.0
2017-Dec-15 23:58S 23°59' W 046°18'0 0.0
2017-Dec-15 23:30S 23°59' W 046°18'0 0.0
2017-Dec-15 23:00S 23°59' W 046°18'0 0.0
2017-Dec-15 22:30S 23°59' W 046°18'0 0.0
2017-Dec-15 21:59S 23°59' W 046°18'0 0.0
2017-Dec-15 21:30S 23°59' W 046°18'2 3.2
2017-Dec-15 21:00S 23°58' W 046°18'1 2.2
2017-Dec-15 20:27S 23°59' W 046°17'0 1.0
2017-Dec-15 20:00S 23°59' W 046°18'0 0.0
2017-Dec-15 19:30S 23°59' W 046°18'0 0.0
2017-Dec-15 18:58S 23°59' W 046°18'0 0.0
2017-Dec-15 18:30S 23°59' W 046°18'0 0.0
2017-Dec-15 17:58S 23°59' W 046°18'0 0.0
2017-Dec-15 17:30S 23°59' W 046°18'0 0.0
2017-Dec-15 16:56S 23°59' W 046°18'0 0.0
2017-Dec-15 16:30S 23°59' W 046°18'0 0.0
2017-Dec-15 16:00S 23°59' W 046°18'0 0.9
2017-Dec-15 15:30S 23°60' W 046°18'1 2.4
2017-Dec-15 14:59S 23°59' W 046°17'0 0.0
2017-Dec-15 14:26S 23°59' W 046°17'1 0.0
2017-Dec-14 18:30S 23°59' W 046°18'0 0.0
2017-Dec-14 18:00S 23°59' W 046°18'0 0.0
2017-Dec-14 17:30S 23°59' W 046°18'0 0.0
2017-Dec-14 16:59S 23°59' W 046°18'1 2.6
2017-Dec-14 16:29S 23°58' W 046°17'1 1.1
2017-Dec-14 16:00S 23°58' W 046°18'2 1.6
2017-Dec-14 14:49S 23°56' W 046°19'1 0.3
2017-Dec-14 12:09S 23°57' W 046°19'1 8.1
2017-Dec-14 11:59S 23°58' W 046°18'1 2.8
2017-Dec-14 11:29S 23°59' W 046°18'2 0.6
2017-Dec-14 08:36S 23°58' W 046°18'0 0.8
2017-Dec-14 08:28S 23°58' W 046°18'0 0.4
2017-Dec-14 08:00S 23°58' W 046°18'2 3.7
2017-Dec-14 07:30S 23°60' W 046°18'0 0.1
2017-Dec-14 03:38S 23°59' W 046°18'0 0.0
2017-Dec-14 03:24S 23°59' W 046°18'0 0.0
2017-Dec-14 02:53S 23°59' W 046°18'0 0.0
2017-Dec-14 02:16S 23°59' W 046°18'0 0.0
2017-Dec-14 00:40S 23°59' W 046°18'0 0.1
2017-Dec-13 22:35S 23°59' W 046°18'1 0.7
2017-Dec-13 21:22S 23°59' W 046°17'1 0.3
2017-Dec-13 19:44S 23°58' W 046°18'1 2.9
2017-Dec-13 19:21S 23°59' W 046°18'0 0.5
2017-Dec-13 18:56S 23°59' W 046°18'0 0.0
2017-Dec-13 18:28S 23°59' W 046°18'0 0.0
2017-Dec-13 18:00S 23°59' W 046°18'0 0.0
2017-Dec-13 17:30S 23°59' W 046°18'0 0.0
2017-Dec-13 15:34S 23°59' W 046°18'0 0.0
2017-Dec-13 15:24S 23°59' W 046°18'0 0.0
2017-Dec-13 14:59S 23°59' W 046°18'0 0.0
2017-Dec-13 14:29S 23°59' W 046°18'0 0.0
2017-Dec-13 14:00S 23°59' W 046°18'1 1.8
2017-Dec-13 13:30S 23°60' W 046°19'1 0.1
2017-Dec-12 20:44S 23°59' W 046°17'0 0.0
2017-Dec-12 09:28S 23°59' W 046°18'0 0.0
2017-Dec-12 08:46S 23°59' W 046°18'0 0.0
2017-Dec-12 08:06S 23°59' W 046°18'0 0.0
2017-Dec-12 07:56S 23°59' W 046°18'0 0.0
2017-Dec-12 07:22S 23°59' W 046°18'0 0.0
2017-Dec-12 05:51S 23°59' W 046°18'0 0.0
2017-Dec-12 05:27S 23°59' W 046°18'0 0.0
2017-Dec-12 03:52S 23°59' W 046°18'0 0.0
2017-Dec-12 03:28S 23°59' W 046°18'0 0.0
2017-Dec-12 02:55S 23°59' W 046°18'0 0.0
2017-Dec-12 01:22S 23°59' W 046°18'0 0.0
2017-Dec-11 15:24S 23°59' W 046°18'0 0.0
2017-Dec-11 14:58S 23°59' W 046°18'0 0.0
2017-Dec-11 14:11S 23°59' W 046°18'0 0.0
2017-Dec-11 13:58S 23°59' W 046°18'0 0.0
2017-Dec-11 13:27S 23°59' W 046°18'0 0.0
2017-Dec-11 12:56S 23°59' W 046°18'0 0.0
2017-Dec-11 12:28S 23°59' W 046°18'0 0.0
2017-Dec-11 11:46S 23°59' W 046°18'0 0.0
2017-Dec-11 11:30S 23°59' W 046°18'0 0.0
2017-Dec-11 11:00S 23°59' W 046°18'0 0.0
2017-Dec-11 08:40S 23°59' W 046°18'0 0.0
2017-Dec-11 04:58S 23°59' W 046°18'0 0.0
2017-Dec-10 20:55S 23°59' W 046°18'0 0.0
2017-Dec-10 20:27S 23°59' W 046°18'0 0.0
2017-Dec-10 19:59S 23°59' W 046°18'0 0.0
2017-Dec-10 19:30S 23°59' W 046°18'0 0.0
2017-Dec-10 19:00S 23°59' W 046°18'0 0.0
2017-Dec-10 18:30S 23°59' W 046°18'0 0.0
2017-Dec-10 18:00S 23°59' W 046°18'0 0.0
2017-Dec-10 17:30S 23°59' W 046°18'0 0.0
2017-Dec-10 16:58S 23°59' W 046°18'0 0.0
2017-Dec-10 16:30S 23°59' W 046°18'0 0.0
2017-Dec-10 16:00S 23°59' W 046°18'0 0.0
2017-Dec-10 15:29S 23°59' W 046°18'0 0.0
2017-Dec-10 14:59S 23°59' W 046°18'0 0.0
2017-Dec-10 14:30S 23°59' W 046°18'0 0.0
2017-Dec-10 14:00S 23°59' W 046°18'0 0.0
2017-Dec-10 13:31S 23°59' W 046°18'0 0.0
2017-Dec-10 13:00S 23°59' W 046°18'0 0.0
2017-Dec-10 12:30S 23°59' W 046°18'0 0.0
2017-Dec-10 12:00S 23°59' W 046°18'0 0.0
2017-Dec-10 11:30S 23°59' W 046°18'2 3.0
2017-Dec-10 10:59S 23°58' W 046°18'0 0.1
2017-Dec-10 10:28S 23°58' W 046°18'2 3.2
2017-Dec-10 10:01S 23°59' W 046°18'1 2.8
2017-Dec-10 09:30S 23°58' W 046°18'0 0.5
2017-Dec-10 08:38S 23°58' W 046°18'1 6.6
2017-Dec-10 08:30S 23°59' W 046°18'0 0.5
2017-Dec-10 07:59S 23°59' W 046°18'0 0.0
2017-Dec-10 07:29S 23°59' W 046°18'0 0.0
2017-Dec-10 06:55S 23°59' W 046°18'0 0.0
2017-Dec-10 06:30S 23°59' W 046°18'0 0.0
2017-Dec-10 05:46S 23°59' W 046°18'0 0.0
2017-Dec-10 05:29S 23°59' W 046°18'0 0.0
2017-Dec-10 04:59S 23°59' W 046°18'0 0.0
2017-Dec-10 04:29S 23°59' W 046°18'0 0.0
2017-Dec-10 03:49S 23°59' W 046°18'0 0.0
2017-Dec-10 03:28S 23°59' W 046°18'1 2.3
2017-Dec-10 02:49S 23°58' W 046°18'0 0.3
2017-Dec-10 02:20S 23°58' W 046°18'1 0.4
2017-Dec-09 22:32S 23°59' W 046°17'0 6.3
2017-Dec-09 22:31S 23°59' W 046°18'0 0.2
2017-Dec-09 22:00S 23°59' W 046°18'0 0.0
2017-Dec-09 21:30S 23°59' W 046°18'0 0.0
2017-Dec-09 20:57S 23°59' W 046°18'0 0.0
2017-Dec-09 20:30S 23°59' W 046°18'0 0.0
2017-Dec-09 19:55S 23°59' W 046°18'0 0.0
2017-Dec-09 19:30S 23°59' W 046°18'0 0.0
2017-Dec-09 18:59S 23°59' W 046°18'0 0.0
2017-Dec-09 18:24S 23°59' W 046°18'0 0.0
2017-Dec-09 17:57S 23°59' W 046°18'0 0.0
2017-Dec-09 09:23S 23°59' W 046°18'1 2.1
2017-Dec-09 09:00S 23°59' W 046°17'1 0.5
2017-Dec-09 07:10S 23°58' W 046°18'0 0.1
2017-Dec-09 06:59S 23°58' W 046°18'0 0.1
2017-Dec-09 06:30S 23°58' W 046°18'2 3.5
2017-Dec-09 06:00S 23°59' W 046°18'0 0.0
2017-Dec-09 01:00S 23°59' W 046°18'0 0.0
2017-Dec-08 14:30S 23°59' W 046°18'0 0.0
2017-Dec-08 14:00S 23°59' W 046°18'0 0.0
2017-Dec-08 12:02S 23°59' W 046°18'0 0.0
2017-Dec-08 10:19S 23°59' W 046°18'0 0.1
2017-Dec-08 09:59S 23°59' W 046°18'0 0.0
2017-Dec-08 09:30S 23°59' W 046°18'0 0.0
2017-Dec-08 09:00S 23°59' W 046°18'0 0.0
2017-Dec-08 08:29S 23°59' W 046°18'0 0.0
2017-Dec-08 07:56S 23°59' W 046°18'0 0.0
2017-Dec-08 07:31S 23°59' W 046°18'0 0.0
2017-Dec-08 06:52S 23°59' W 046°18'0 0.0
2017-Dec-08 04:53S 23°59' W 046°18'0 0.0
2017-Dec-08 04:24S 23°59' W 046°18'0 0.1
2017-Dec-08 03:40S 23°60' W 046°18'0 0.2
2017-Dec-08 03:29S 23°59' W 046°18'2 0.1
2017-Dec-07 12:35S 23°57' W 046°18'1 8.9
2017-Dec-07 12:29S 23°58' W 046°18'  
Track history (hours):
 
Tides and Currents Weather Stations Pressure Air Temp Water Temp Dewpoint Dewpoint Depression Visibility Wind Speed Wind Dir Waves Ship Positions

Sculptor

Last reported at 2017-Dec-17 08:00 UTC. Time now 2017-Dec-17 08:22 UTC.
Position S 23°59' W 046°18'.

Length 32 m; draft 5.5 m.

Type: Tug. MMSI: 710005970.

Date/timePositionNaut miles runAvg speedWind from/ knotsBaromVisibWave heightAir tempDewpointWater temp
2017-Dec-17 08:00S 23°59' W 046°18'0 0.0
2017-Dec-17 07:27S 23°59' W 046°18'0 0.0
2017-Dec-17 06:58S 23°59' W 046°18'0 0.0
2017-Dec-17 06:30S 23°59' W 046°18'0 0.0
2017-Dec-17 06:00S 23°59' W 046°18'5 5.4
2017-Dec-17 05:01S 23°55' W 046°21'3 2.9
2017-Dec-17 04:00S 23°57' W 046°19'1 1.4
2017-Dec-17 03:06S 23°58' W 046°18'0 0.0
2017-Dec-17 02:59S 23°58' W 046°18'0 0.0
2017-Dec-17 02:20S 23°58' W 046°18'0 0.0
2017-Dec-17 01:59S 23°58' W 046°18'0 0.4
2017-Dec-17 01:04S 23°58' W 046°18'0 0.9
2017-Dec-17 01:00S 23°58' W 046°18'0 0.1
2017-Dec-16 22:07S 23°58' W 046°18'1 6.5
2017-Dec-16 21:55S 23°59' W 046°17'0 0.5
2017-Dec-16 21:18S 23°59' W 046°18'0 0.0
2017-Dec-16 20:49S 23°59' W 046°18'0 0.0
2017-Dec-16 19:47S 23°59' W 046°18'0 0.0
2017-Dec-16 19:29S 23°59' W 046°18'0 0.0
2017-Dec-16 18:56S 23°59' W 046°18'0 0.0
2017-Dec-16 18:29S 23°59' W 046°18'0 0.0
2017-Dec-16 17:58S 23°59' W 046°18'2 0.1
2017-Dec-16 01:31S 23°57' W 046°18'1 9.1
2017-Dec-16 01:24S 23°58' W 046°18'1 3.3
2017-Dec-16 01:00S 23°59' W 046°18'0 0.1
2017-Dec-16 00:28S 23°59' W 046°18'0 0.0
2017-Dec-15 23:58S 23°59' W 046°18'0 0.0
2017-Dec-15 23:30S 23°59' W 046°18'0 0.0
2017-Dec-15 23:00S 23°59' W 046°18'0 0.0
2017-Dec-15 22:30S 23°59' W 046°18'0 0.0
2017-Dec-15 21:59S 23°59' W 046°18'0 0.0
2017-Dec-15 21:30S 23°59' W 046°18'2 3.2
2017-Dec-15 21:00S 23°58' W 046°18'1 2.2
2017-Dec-15 20:27S 23°59' W 046°17'0 1.0
2017-Dec-15 20:00S 23°59' W 046°18'0 0.0
2017-Dec-15 19:30S 23°59' W 046°18'0 0.0
2017-Dec-15 18:58S 23°59' W 046°18'0 0.0
2017-Dec-15 18:30S 23°59' W 046°18'0 0.0
2017-Dec-15 17:58S 23°59' W 046°18'0 0.0
2017-Dec-15 17:30S 23°59' W 046°18'0 0.0
2017-Dec-15 16:56S 23°59' W 046°18'0 0.0
2017-Dec-15 16:30S 23°59' W 046°18'0 0.0
2017-Dec-15 16:00S 23°59' W 046°18'0 0.9
2017-Dec-15 15:30S 23°60' W 046°18'1 2.4
2017-Dec-15 14:59S 23°59' W 046°17'0 0.0
2017-Dec-15 14:26S 23°59' W 046°17'1 0.0
2017-Dec-14 18:30S 23°59' W 046°18'0 0.0
2017-Dec-14 18:00S 23°59' W 046°18'0 0.0
2017-Dec-14 17:30S 23°59' W 046°18'0 0.0
2017-Dec-14 16:59S 23°59' W 046°18'1 2.6
2017-Dec-14 16:29S 23°58' W 046°17'1 1.1
2017-Dec-14 16:00S 23°58' W 046°18'2 1.6
2017-Dec-14 14:49S 23°56' W 046°19'1 0.3
2017-Dec-14 12:09S 23°57' W 046°19'1 8.1
2017-Dec-14 11:59S 23°58' W 046°18'1 2.8
2017-Dec-14 11:29S 23°59' W 046°18'2 0.6
2017-Dec-14 08:36S 23°58' W 046°18'0 0.8
2017-Dec-14 08:28S 23°58' W 046°18'0 0.4
2017-Dec-14 08:00S 23°58' W 046°18'2 3.7
2017-Dec-14 07:30S 23°60' W 046°18'0 0.1
2017-Dec-14 03:38S 23°59' W 046°18'0 0.0
2017-Dec-14 03:24S 23°59' W 046°18'0 0.0
2017-Dec-14 02:53S 23°59' W 046°18'0 0.0
2017-Dec-14 02:16S 23°59' W 046°18'0 0.0
2017-Dec-14 00:40S 23°59' W 046°18'0 0.1
2017-Dec-13 22:35S 23°59' W 046°18'1 0.7
2017-Dec-13 21:22S 23°59' W 046°17'1 0.3
2017-Dec-13 19:44S 23°58' W 046°18'1 2.9
2017-Dec-13 19:21S 23°59' W 046°18'0 0.5
2017-Dec-13 18:56S 23°59' W 046°18'0 0.0
2017-Dec-13 18:28S 23°59' W 046°18'0 0.0
2017-Dec-13 18:00S 23°59' W 046°18'0 0.0
2017-Dec-13 17:30S 23°59' W 046°18'0 0.0
2017-Dec-13 15:34S 23°59' W 046°18'0 0.0
2017-Dec-13 15:24S 23°59' W 046°18'0 0.0
2017-Dec-13 14:59S 23°59' W 046°18'0 0.0
2017-Dec-13 14:29S 23°59' W 046°18'0 0.0
2017-Dec-13 14:00S 23°59' W 046°18'1 1.8
2017-Dec-13 13:30S 23°60' W 046°19'1 0.1
2017-Dec-12 20:44S 23°59' W 046°17'0 0.0
2017-Dec-12 09:28S 23°59' W 046°18'0 0.0
2017-Dec-12 08:46S 23°59' W 046°18'0 0.0
2017-Dec-12 08:06S 23°59' W 046°18'0 0.0
2017-Dec-12 07:56S 23°59' W 046°18'0 0.0
2017-Dec-12 07:22S 23°59' W 046°18'0 0.0
2017-Dec-12 05:51S 23°59' W 046°18'0 0.0
2017-Dec-12 05:27S 23°59' W 046°18'0 0.0
2017-Dec-12 03:52S 23°59' W 046°18'0 0.0
2017-Dec-12 03:28S 23°59' W 046°18'0 0.0
2017-Dec-12 02:55S 23°59' W 046°18'0 0.0
2017-Dec-12 01:22S 23°59' W 046°18'0 0.0
2017-Dec-11 15:24S 23°59' W 046°18'0 0.0
2017-Dec-11 14:58S 23°59' W 046°18'0 0.0
2017-Dec-11 14:11S 23°59' W 046°18'0 0.0
2017-Dec-11 13:58S 23°59' W 046°18'0 0.0
2017-Dec-11 13:27S 23°59' W 046°18'0 0.0
2017-Dec-11 12:56S 23°59' W 046°18'0 0.0
2017-Dec-11 12:28S 23°59' W 046°18'0 0.0
2017-Dec-11 11:46S 23°59' W 046°18'0 0.0
2017-Dec-11 11:30S 23°59' W 046°18'0 0.0
2017-Dec-11 11:00S 23°59' W 046°18'0 0.0
2017-Dec-11 08:40S 23°59' W 046°18'0 0.0
2017-Dec-11 04:58S 23°59' W 046°18'0 0.0
2017-Dec-10 20:55S 23°59' W 046°18'0 0.0
2017-Dec-10 20:27S 23°59' W 046°18'0 0.0
2017-Dec-10 19:59S 23°59' W 046°18'0 0.0
2017-Dec-10 19:30S 23°59' W 046°18'0 0.0
2017-Dec-10 19:00S 23°59' W 046°18'0 0.0
2017-Dec-10 18:30S 23°59' W 046°18'0 0.0
2017-Dec-10 18:00S 23°59' W 046°18'0 0.0
2017-Dec-10 17:30S 23°59' W 046°18'0 0.0
2017-Dec-10 16:58S 23°59' W 046°18'0 0.0
2017-Dec-10 16:30S 23°59' W 046°18'0 0.0
2017-Dec-10 16:00S 23°59' W 046°18'0 0.0
2017-Dec-10 15:29S 23°59' W 046°18'0 0.0
2017-Dec-10 14:59S 23°59' W 046°18'0 0.0
2017-Dec-10 14:30S 23°59' W 046°18'0 0.0
2017-Dec-10 14:00S 23°59' W 046°18'0 0.0
2017-Dec-10 13:31S 23°59' W 046°18'0 0.0
2017-Dec-10 13:00S 23°59' W 046°18'0 0.0
2017-Dec-10 12:30S 23°59' W 046°18'0 0.0
2017-Dec-10 12:00S 23°59' W 046°18'0 0.0
2017-Dec-10 11:30S 23°59' W 046°18'2 3.0
2017-Dec-10 10:59S 23°58' W 046°18'0 0.1
2017-Dec-10 10:28S 23°58' W 046°18'2 3.2
2017-Dec-10 10:01S 23°59' W 046°18'1 2.8
2017-Dec-10 09:30S 23°58' W 046°18'0 0.5
2017-Dec-10 08:38S 23°58' W 046°18'1 6.6
2017-Dec-10 08:30S 23°59' W 046°18'0 0.5
2017-Dec-10 07:59S 23°59' W 046°18'0 0.0
2017-Dec-10 07:29S 23°59' W 046°18'0 0.0
2017-Dec-10 06:55S 23°59' W 046°18'0 0.0
2017-Dec-10 06:30S 23°59' W 046°18'0 0.0
2017-Dec-10 05:46S 23°59' W 046°18'0 0.0
2017-Dec-10 05:29S 23°59' W 046°18'0 0.0
2017-Dec-10 04:59S 23°59' W 046°18'0 0.0
2017-Dec-10 04:29S 23°59' W 046°18'0 0.0
2017-Dec-10 03:49S 23°59' W 046°18'0 0.0
2017-Dec-10 03:28S 23°59' W 046°18'1 2.3
2017-Dec-10 02:49S 23°58' W 046°18'0 0.3
2017-Dec-10 02:20S 23°58' W 046°18'1 0.4
2017-Dec-09 22:32S 23°59' W 046°17'0 6.3
2017-Dec-09 22:31S 23°59' W 046°18'0 0.2
2017-Dec-09 22:00S 23°59' W 046°18'0 0.0
2017-Dec-09 21:30S 23°59' W 046°18'0 0.0
2017-Dec-09 20:57S 23°59' W 046°18'0 0.0
2017-Dec-09 20:30S 23°59' W 046°18'0 0.0
2017-Dec-09 19:55S 23°59' W 046°18'0 0.0
2017-Dec-09 19:30S 23°59' W 046°18'0 0.0
2017-Dec-09 18:59S 23°59' W 046°18'0 0.0
2017-Dec-09 18:24S 23°59' W 046°18'0 0.0
2017-Dec-09 17:57S 23°59' W 046°18'0 0.0
2017-Dec-09 09:23S 23°59' W 046°18'1 2.1
2017-Dec-09 09:00S 23°59' W 046°17'1 0.5
2017-Dec-09 07:10S 23°58' W 046°18'0 0.1
2017-Dec-09 06:59S 23°58' W 046°18'0 0.1
2017-Dec-09 06:30S 23°58' W 046°18'2 3.5
2017-Dec-09 06:00S 23°59' W 046°18'0 0.0
2017-Dec-09 01:00S 23°59' W 046°18'0 0.0
2017-Dec-08 14:30S 23°59' W 046°18'0 0.0
2017-Dec-08 14:00S 23°59' W 046°18'0 0.0
2017-Dec-08 12:02S 23°59' W 046°18'0 0.0
2017-Dec-08 10:19S 23°59' W 046°18'0 0.1
2017-Dec-08 09:59S 23°59' W 046°18'0 0.0
2017-Dec-08 09:30S 23°59' W 046°18'0 0.0
2017-Dec-08 09:00S 23°59' W 046°18'0 0.0
2017-Dec-08 08:29S 23°59' W 046°18'0 0.0
2017-Dec-08 07:56S 23°59' W 046°18'0 0.0
2017-Dec-08 07:31S 23°59' W 046°18'0 0.0
2017-Dec-08 06:52S 23°59' W 046°18'0 0.0
2017-Dec-08 04:53S 23°59' W 046°18'0 0.0
2017-Dec-08 04:24S 23°59' W 046°18'0 0.1
2017-Dec-08 03:40S 23°60' W 046°18'0 0.2
2017-Dec-08 03:29S 23°59' W 046°18'2 0.1
2017-Dec-07 12:35S 23°57' W 046°18'1 8.9
2017-Dec-07 12:29S 23°58' W 046°18'  

Dump ship's entire track history